Time;durP1;ratioP1;P1;durP2;ratioP2;P2;SDS_P1;SDS_P2;PMS_P1;PMS_P2;Temp;Humidity;BMP_temperature;BMP_pressure;BME280_temperature;BME280_humidity;BME280_pressure;Samples;Min_cycle;Max_cycle;Signal;HPM_P1;HPM_P2
2022/12/10 00:00:38;;;;;;;126.45;38.72;;;;;;;;;;5032612;28;20390;-77
2022/12/10 00:03:04;;;;;;;109.70;36.85;;;;;;;;;;5033178;28;20042;-77
2022/12/10 00:05:33;;;;;;;110.72;35.92;;;;;;;;;;5044828;28;20077;-77
2022/12/10 00:07:59;;;;;;;121.47;39.05;;;;;;;;;;5033265;28;20136;-77
2022/12/10 00:10:25;;;;;;;125.00;39.90;;;;;;;;;;5033228;28;20493;-77
2022/12/10 00:12:51;;;;;;;100.70;34.78;;;;;;;;;;5041615;28;20053;-76
2022/12/10 00:15:17;;;;;;;106.32;36.38;;;;;;;;;;5022719;28;20056;-76
2022/12/10 00:17:43;;;;;;;121.63;38.88;;;;;;;;;;5033162;28;20397;-76
2022/12/10 00:20:10;;;;;;;108.70;35.80;;;;;;;;;;5033507;28;20377;-77
2022/12/10 00:22:36;;;;;;;122.85;37.67;;;;;;;;;;5031068;28;20100;-76
2022/12/10 00:25:02;;;;;;;116.70;35.75;;;;;;;;;;5044570;28;20129;-77
2022/12/10 00:27:28;;;;;;;115.57;35.00;;;;;;;;;;5021388;28;20085;-77
2022/12/10 00:29:54;;;;;;;121.50;37.67;;;;;;;;;;5032131;28;20042;-76
2022/12/10 00:32:20;;;;;;;141.02;39.28;;;;;;;;;;5034500;28;20456;-77
2022/12/10 00:34:46;;;;;;;133.43;35.15;;;;;;;;;;5034766;28;20045;-76
2022/12/10 00:37:12;;;;;;;110.05;35.05;;;;;;;;;;5044919;28;20042;-76
2022/12/10 00:39:38;;;;;;;157.57;40.17;;;;;;;;;;5026504;28;20073;-76
2022/12/10 00:42:04;;;;;;;139.73;36.60;;;;;;;;;;5032032;28;20045;-76
2022/12/10 00:44:30;;;;;;;153.02;36.47;;;;;;;;;;5033357;28;20038;-76
2022/12/10 00:46:56;;;;;;;129.75;31.55;;;;;;;;;;5031941;28;20124;-76
2022/12/10 00:49:24;;;;;;;142.98;35.38;;;;;;;;;;5030877;28;20401;-76
2022/12/10 00:51:50;;;;;;;152.38;38.08;;;;;;;;;;5032369;28;20041;-76
2022/12/10 00:54:16;;;;;;;169.57;37.63;;;;;;;;;;5035689;28;20041;-76
2022/12/10 00:56:42;;;;;;;163.90;36.38;;;;;;;;;;5032385;28;20046;-76
2022/12/10 00:59:08;;;;;;;157.02;36.72;;;;;;;;;;5012724;28;20050;-76
2022/12/10 01:01:39;;;;;;;137.52;35.00;;;;;;;;;;5027242;28;20041;-76
2022/12/10 01:04:07;;;;;;;162.55;37.08;;;;;;;;;;5035567;28;20048;-76
2022/12/10 01:06:37;;;;;;;138.68;37.10;;;;;;;;;;5034116;28;20053;-76
2022/12/10 01:09:05;;;;;;;134.13;36.35;;;;;;;;;;5032304;28;20053;-76
2022/12/10 01:11:32;;;;;;;136.50;35.55;;;;;;;;;;5025601;28;20401;-76
2022/12/10 01:13:59;;;;;;;194.27;40.75;;;;;;;;;;5032283;28;20107;-76
2022/12/10 01:16:25;;;;;;;173.18;37.95;;;;;;;;;;5033420;28;20122;-76
2022/12/10 01:18:55;;;;;;;213.10;39.60;;;;;;;;;;5033055;28;20046;-76
2022/12/10 01:21:22;;;;;;;262.02;47.60;;;;;;;;;;5032541;28;20136;-76
2022/12/10 01:23:48;;;;;;;199.82;42.20;;;;;;;;;;5026673;28;20038;-76
2022/12/10 01:26:17;;;;;;;210.05;43.17;;;;;;;;;;5032041;28;20033;-76
2022/12/10 01:28:43;;;;;;;232.02;44.70;;;;;;;;;;5035359;28;20041;-76
2022/12/10 01:31:11;;;;;;;171.88;39.20;;;;;;;;;;5037556;28;20120;-76
2022/12/10 01:33:38;;;;;;;147.10;39.05;;;;;;;;;;5030596;28;20088;-76
2022/12/10 01:36:05;;;;;;;164.23;39.53;;;;;;;;;;5032336;28;20567;-76
2022/12/10 01:38:31;;;;;;;180.00;40.97;;;;;;;;;;5036329;28;20492;-76
2022/12/10 01:40:57;;;;;;;153.02;37.08;;;;;;;;;;5035759;28;20516;-76
2022/12/10 01:43:23;;;;;;;232.82;44.03;;;;;;;;;;5032505;28;20034;-76
2022/12/10 01:45:49;;;;;;;182.98;40.88;;;;;;;;;;5034808;28;20112;-77
2022/12/10 01:48:15;;;;;;;176.60;40.30;;;;;;;;;;5052318;28;20046;-76
2022/12/10 01:50:41;;;;;;;194.00;40.88;;;;;;;;;;5031172;28;20041;-76
2022/12/10 01:53:07;;;;;;;210.68;43.97;;;;;;;;;;5028039;28;20053;-76
2022/12/10 01:55:36;;;;;;;196.60;43.22;;;;;;;;;;5036721;28;20116;-76
2022/12/10 01:58:03;;;;;;;228.93;45.05;;;;;;;;;;5035368;28;20041;-76
2022/12/10 02:00:29;;;;;;;197.45;42.38;;;;;;;;;;5034177;28;20041;-76
2022/12/10 02:03:05;;;;;;;145.02;37.17;;;;;;;;;;5033772;28;20420;-76
2022/12/10 02:05:31;;;;;;;;;;;;;;;;;;5024016;28;20045;-76
2022/12/10 02:08:06;;;;;;;197.30;42.53;;;;;;;;;;5023939;28;19929;-76
2022/12/10 02:10:35;;;;;;;195.60;43.20;;;;;;;;;;5030032;28;20046;-76
2022/12/10 02:13:01;;;;;;;157.23;39.00;;;;;;;;;;5035620;28;20154;-76
2022/12/10 02:15:29;;;;;;;166.93;41.53;;;;;;;;;;5032072;28;20121;-76
2022/12/10 02:18:01;;;;;;;149.50;40.17;;;;;;;;;;5036091;28;20049;-76
2022/12/10 02:20:32;;;;;;;178.45;41.50;;;;;;;;;;5034371;28;20573;-76
2022/12/10 02:22:58;;;;;;;189.05;42.70;;;;;;;;;;5045077;28;20080;-76
2022/12/10 02:25:27;;;;;;;266.92;50.35;;;;;;;;;;5041797;28;20071;-76
2022/12/10 02:27:58;;;;;;;139.35;37.90;;;;;;;;;;5035530;28;20095;-76
2022/12/10 02:30:24;;;;;;;158.85;40.65;;;;;;;;;;5035308;28;20485;-76
2022/12/10 02:32:50;;;;;;;259.02;47.47;;;;;;;;;;5036449;28;20056;-76
2022/12/10 02:35:19;;;;;;;173.18;38.67;;;;;;;;;;5038700;28;20520;-75
2022/12/10 02:37:48;;;;;;;268.98;49.13;;;;;;;;;;5041510;28;20440;-76
2022/12/10 02:40:18;;;;;;;155.18;37.75;;;;;;;;;;5037580;28;20501;-76
2022/12/10 02:42:45;;;;;;;148.38;40.80;;;;;;;;;;5046452;28;20048;-76
2022/12/10 02:45:12;;;;;;;223.20;43.88;;;;;;;;;;5035942;28;20076;-76
2022/12/10 02:47:39;;;;;;;333.33;56.13;;;;;;;;;;5025813;28;20408;-76
2022/12/10 02:50:06;;;;;;;257.02;46.67;;;;;;;;;;5031543;28;20045;-76
2022/12/10 02:52:32;;;;;;;213.55;45.35;;;;;;;;;;5033986;28;20509;-76
2022/12/10 02:54:58;;;;;;;183.23;40.35;;;;;;;;;;5034597;28;20084;-76
2022/12/10 02:57:33;;;;;;;150.88;40.45;;;;;;;;;;5035598;28;20050;-76
2022/12/10 03:00:18;;;;;;;197.40;43.40;;;;;;;;;;5033793;28;20045;-76
2022/12/10 03:02:44;;;;;;;227.48;47.97;;;;;;;;;;5021907;28;20056;-76
2022/12/10 03:05:10;;;;;;;230.57;46.45;;;;;;;;;;5034413;28;20069;-76
2022/12/10 03:07:37;;;;;;;142.75;39.92;;;;;;;;;;5039362;28;20076;-76
2022/12/10 03:10:07;;;;;;;185.32;44.03;;;;;;;;;;5033684;28;20042;-76
2022/12/10 03:12:42;;;;;;;157.85;41.53;;;;;;;;;;5034885;28;20049;-76
2022/12/10 03:15:10;;;;;;;141.27;39.28;;;;;;;;;;5035822;28;20128;-76
2022/12/10 03:17:38;;;;;;;195.55;44.40;;;;;;;;;;5034370;28;20043;-76
2022/12/10 03:20:08;;;;;;;222.07;46.13;;;;;;;;;;5030904;28;20065;-76
2022/12/10 03:22:34;;;;;;;204.48;45.55;;;;;;;;;;5013256;28;20050;-76
2022/12/10 03:25:01;;;;;;;223.65;48.03;;;;;;;;;;5038252;28;20037;-76
2022/12/10 03:27:29;;;;;;;178.75;41.70;;;;;;;;;;5025379;28;20406;-76
2022/12/10 03:29:57;;;;;;;175.57;42.75;;;;;;;;;;5033529;28;20073;-76
2022/12/10 03:32:25;;;;;;;168.30;40.85;;;;;;;;;;5023784;28;20041;-76
2022/12/10 03:34:53;;;;;;;197.88;44.92;;;;;;;;;;5033663;28;20038;-76
2022/12/10 03:37:20;;;;;;;153.48;37.28;;;;;;;;;;5033475;28;20037;-76
2022/12/10 03:39:46;;;;;;;177.70;43.88;;;;;;;;;;5032977;28;20049;-76
2022/12/10 03:42:12;;;;;;;195.40;41.13;;;;;;;;;;5029038;28;20128;-76
2022/12/10 03:44:40;;;;;;;178.55;42.85;;;;;;;;;;5042388;28;20045;-76
2022/12/10 03:47:08;;;;;;;274.23;46.72;;;;;;;;;;5034612;28;20042;-76
2022/12/10 03:49:34;;;;;;;161.73;38.72;;;;;;;;;;5032603;28;20056;-76
2022/12/10 03:52:00;;;;;;;202.18;43.50;;;;;;;;;;5031813;28;20481;-76
2022/12/10 03:54:26;;;;;;;232.10;46.58;;;;;;;;;;5031366;28;20125;-76
2022/12/10 03:56:52;;;;;;;213.25;45.20;;;;;;;;;;5033460;28;20095;-76
2022/12/10 03:59:18;;;;;;;221.43;43.88;;;;;;;;;;5029544;28;20056;-76
2022/12/10 04:01:44;;;;;;;218.05;44.45;;;;;;;;;;5026717;28;20049;-76
2022/12/10 04:04:11;;;;;;;255.20;46.78;;;;;;;;;;5027592;28;20046;-76
2022/12/10 04:06:41;;;;;;;181.70;42.13;;;;;;;;;;5029899;28;20042;-76
2022/12/10 04:09:07;;;;;;;312.48;53.03;;;;;;;;;;5032792;28;20065;-76
2022/12/10 04:11:33;;;;;;;278.45;46.45;;;;;;;;;;5032745;28;20120;-76
2022/12/10 04:16:44;;;;;;;301.10;52.80;;;;;;;;;;5019528;28;20053;-76
2022/12/10 04:19:11;;;;;;;164.02;38.97;;;;;;;;;;5026290;28;20049;-76
2022/12/10 04:27:10;;;;;;;234.50;44.88;;;;;;;;;;5033298;28;20107;-76
2022/12/10 04:29:36;;;;;;;263.15;43.60;;;;;;;;;;5032992;28;20115;-76
2022/12/10 04:32:03;;;;;;;239.75;42.60;;;;;;;;;;5032226;28;20049;-76
2022/12/10 04:34:29;;;;;;;271.92;44.60;;;;;;;;;;5034012;28;20123;-76
2022/12/10 04:36:55;;;;;;;370.70;51.30;;;;;;;;;;5033589;28;20037;-76
2022/12/10 04:39:21;;;;;;;175.25;36.80;;;;;;;;;;5043019;28;20465;-76
2022/12/10 04:41:48;;;;;;;272.15;44.28;;;;;;;;;;5034360;28;20378;-76
2022/12/10 04:44:14;;;;;;;197.07;39.00;;;;;;;;;;5028231;28;20107;-76
2022/12/10 04:46:40;;;;;;;236.65;41.05;;;;;;;;;;5033462;28;20091;-76
2022/12/10 04:49:06;;;;;;;289.88;46.08;;;;;;;;;;5012172;28;20120;-76
2022/12/10 04:51:32;;;;;;;191.70;37.30;;;;;;;;;;5025924;28;20033;-76
2022/12/10 04:53:59;;;;;;;351.25;49.53;;;;;;;;;;5031892;28;20041;-76
2022/12/10 04:56:25;;;;;;;274.65;43.03;;;;;;;;;;5032549;28;20139;-76
2022/12/10 04:58:51;;;;;;;296.67;48.38;;;;;;;;;;5033192;28;20431;-76
2022/12/10 05:01:21;;;;;;;201.48;36.90;;;;;;;;;;5030233;28;20049;-76
2022/12/10 05:03:47;;;;;;;312.27;43.65;;;;;;;;;;5030394;28;20046;-76
2022/12/10 05:06:13;;;;;;;265.73;43.42;;;;;;;;;;5036173;28;20071;-76
2022/12/10 05:08:40;;;;;;;262.50;44.58;;;;;;;;;;5040673;28;20053;-76
2022/12/10 05:11:08;;;;;;;270.48;39.72;;;;;;;;;;5031695;28;20068;-75
2022/12/10 05:13:34;;;;;;;225.70;37.95;;;;;;;;;;5030449;28;20064;-76
2022/12/10 05:16:04;;;;;;;264.13;41.35;;;;;;;;;;5032526;28;20068;-75
2022/12/10 05:18:30;;;;;;;253.27;40.40;;;;;;;;;;5015206;28;20049;-76
2022/12/10 05:20:59;;;;;;;236.50;39.65;;;;;;;;;;5041086;28;20397;-76
2022/12/10 05:23:28;;;;;;;251.65;38.92;;;;;;;;;;5030583;28;20057;-76
2022/12/10 05:25:58;;;;;;;306.63;41.28;;;;;;;;;;5029687;28;20100;-76
2022/12/10 05:28:24;;;;;;;270.83;38.55;;;;;;;;;;5022718;28;20048;-76
2022/12/10 05:30:51;;;;;;;250.07;39.15;;;;;;;;;;5032368;28;20048;-76
2022/12/10 05:33:17;;;;;;;202.50;35.70;;;;;;;;;;5032195;28;22210;-76
2022/12/10 05:35:43;;;;;;;239.95;37.22;;;;;;;;;;5032107;28;20393;-76
2022/12/10 05:38:10;;;;;;;174.82;33.20;;;;;;;;;;5031328;28;20093;-76
2022/12/10 05:40:37;;;;;;;190.70;34.45;;;;;;;;;;5031235;28;20045;-76
2022/12/10 05:43:03;;;;;;;235.23;38.00;;;;;;;;;;5032831;28;20052;-76
2022/12/10 05:45:29;;;;;;;282.23;39.45;;;;;;;;;;5036373;28;20125;-76
2022/12/10 05:47:55;;;;;;;231.32;37.35;;;;;;;;;;5015718;28;20049;-76
2022/12/10 05:50:21;;;;;;;251.35;39.10;;;;;;;;;;5031734;28;20481;-76
2022/12/10 05:52:47;;;;;;;231.38;36.25;;;;;;;;;;5013241;28;20053;-76
2022/12/10 05:55:13;;;;;;;155.98;33.60;;;;;;;;;;5032217;28;20045;-76
2022/12/10 05:57:39;;;;;;;305.08;44.15;;;;;;;;;;5032595;28;20094;-76
2022/12/10 06:00:05;;;;;;;224.05;38.05;;;;;;;;;;5032623;28;20119;-76
2022/12/10 06:02:34;;;;;;;208.40;37.08;;;;;;;;;;5028603;28;20038;-76
2022/12/10 06:05:01;;;;;;;160.25;30.27;;;;;;;;;;5011182;28;20085;-76
2022/12/10 06:07:27;;;;;;;183.65;32.15;;;;;;;;;;5044023;28;20045;-76
2022/12/10 06:09:53;;;;;;;227.60;33.53;;;;;;;;;;5029929;28;20057;-76
2022/12/10 06:12:19;;;;;;;155.25;31.35;;;;;;;;;;5031835;28;20152;-76
2022/12/10 06:14:45;;;;;;;198.38;32.58;;;;;;;;;;5036473;28;20119;-76
2022/12/10 06:17:11;;;;;;;265.33;38.88;;;;;;;;;;5036249;28;20048;-76
2022/12/10 06:19:37;;;;;;;215.40;35.80;;;;;;;;;;5035884;28;20052;-80
2022/12/10 06:22:03;;;;;;;226.43;32.97;;;;;;;;;;5034529;28;20052;-76
2022/12/10 06:24:29;;;;;;;139.50;26.55;;;;;;;;;;5037120;28;20045;-76
2022/12/10 06:26:55;;;;;;;209.65;32.40;;;;;;;;;;5047100;28;21048;-76
2022/12/10 06:29:24;;;;;;;125.65;25.13;;;;;;;;;;5035643;28;20489;-76
2022/12/10 06:31:50;;;;;;;222.60;34.53;;;;;;;;;;5034203;28;20125;-76
2022/12/10 06:34:16;;;;;;;205.10;30.75;;;;;;;;;;5034252;28;20037;-76
2022/12/10 06:36:42;;;;;;;185.48;26.90;;;;;;;;;;5034409;28;20103;-76
2022/12/10 06:39:09;;;;;;;140.85;25.92;;;;;;;;;;5030813;28;20047;-76
2022/12/10 06:41:38;;;;;;;126.13;23.67;;;;;;;;;;5034330;28;20045;-76
2022/12/10 06:44:08;;;;;;;162.55;26.75;;;;;;;;;;5024090;28;20117;-76
2022/12/10 06:46:34;;;;;;;202.48;29.45;;;;;;;;;;5035644;28;20116;-76
2022/12/10 06:49:00;;;;;;;172.25;25.02;;;;;;;;;;5037261;28;20092;-76
2022/12/10 06:51:26;;;;;;;108.82;23.10;;;;;;;;;;5035228;28;20456;-76
2022/12/10 06:53:52;;;;;;;153.13;25.75;;;;;;;;;;5035039;28;20053;-75
2022/12/10 06:56:19;;;;;;;104.78;20.08;;;;;;;;;;5033844;28;20053;-76
2022/12/10 06:58:45;;;;;;;105.07;21.08;;;;;;;;;;5034624;28;20477;-75
2022/12/10 07:01:13;;;;;;;145.77;25.77;;;;;;;;;;5017149;28;20049;-76
2022/12/10 07:03:39;;;;;;;84.05;21.55;;;;;;;;;;5036642;28;20041;-75
2022/12/10 07:06:06;;;;;;;141.95;24.73;;;;;;;;;;5027663;28;20046;-76
2022/12/10 07:08:32;;;;;;;211.73;32.08;;;;;;;;;;5034960;28;20132;-76
2022/12/10 07:10:58;;;;;;;157.43;26.02;;;;;;;;;;5033787;28;20409;-76
2022/12/10 07:13:24;;;;;;;141.05;26.17;;;;;;;;;;5033516;28;20053;-76
2022/12/10 07:15:50;;;;;;;136.82;24.88;;;;;;;;;;5035344;28;20077;-76
2022/12/10 07:18:17;;;;;;;115.85;22.10;;;;;;;;;;5034254;28;20095;-76
2022/12/10 07:20:43;;;;;;;143.80;24.42;;;;;;;;;;5035225;28;20041;-76
2022/12/10 07:23:09;;;;;;;191.57;31.73;;;;;;;;;;5034209;28;20060;-76
2022/12/10 07:25:35;;;;;;;118.47;22.65;;;;;;;;;;5043095;28;20041;-75
2022/12/10 07:28:01;;;;;;;251.02;32.92;;;;;;;;;;5027006;28;20121;-75
2022/12/10 07:30:27;;;;;;;191.30;28.10;;;;;;;;;;5034146;28;20050;-75
2022/12/10 07:32:53;;;;;;;151.48;25.42;;;;;;;;;;5033350;28;20468;-75
2022/12/10 07:35:19;;;;;;;123.93;24.10;;;;;;;;;;5034315;28;20045;-76
2022/12/10 07:37:45;;;;;;;166.63;27.02;;;;;;;;;;5032848;28;20401;-76
2022/12/10 07:40:11;;;;;;;187.40;28.13;;;;;;;;;;5033354;28;20045;-76
2022/12/10 07:42:37;;;;;;;156.05;25.23;;;;;;;;;;5032633;28;20057;-75
2022/12/10 07:45:04;;;;;;;96.15;20.45;;;;;;;;;;5022250;28;20044;-75
2022/12/10 07:47:30;;;;;;;129.85;23.75;;;;;;;;;;5024974;28;20124;-75
2022/12/10 07:49:56;;;;;;;132.93;22.63;;;;;;;;;;5034352;28;20052;-75
2022/12/10 07:52:22;;;;;;;121.50;23.45;;;;;;;;;;5034165;28;20474;-76
2022/12/10 07:54:48;;;;;;;99.07;21.95;;;;;;;;;;5032658;28;20613;-76
2022/12/10 07:57:16;;;;;;;165.73;27.42;;;;;;;;;;5033396;28;20424;-75
2022/12/10 07:59:45;;;;;;;159.90;26.02;;;;;;;;;;5045032;28;20141;-76
2022/12/10 08:02:11;;;;;;;81.53;18.77;;;;;;;;;;5035885;28;20045;-75
2022/12/10 08:04:37;;;;;;;120.07;22.80;;;;;;;;;;5033140;28;20107;-76
2022/12/10 08:07:03;;;;;;;87.18;19.15;;;;;;;;;;5036047;28;20445;-76
2022/12/10 08:09:29;;;;;;;92.65;20.10;;;;;;;;;;5027994;28;20049;-76
2022/12/10 08:11:56;;;;;;;98.38;20.17;;;;;;;;;;5028547;28;20099;-75
2022/12/10 08:14:22;;;;;;;137.35;23.23;;;;;;;;;;5028952;28;20053;-76
2022/12/10 08:16:48;;;;;;;156.02;23.00;;;;;;;;;;5031256;28;20049;-75
2022/12/10 08:19:14;;;;;;;149.13;25.10;;;;;;;;;;5032293;28;20123;-76
2022/12/10 08:21:40;;;;;;;109.43;20.05;;;;;;;;;;5032707;28;20049;-76
2022/12/10 08:24:06;;;;;;;121.55;22.58;;;;;;;;;;5027157;28;20133;-76
2022/12/10 08:26:33;;;;;;;168.82;24.75;;;;;;;;;;5028645;28;20049;-76
2022/12/10 08:28:59;;;;;;;128.63;23.35;;;;;;;;;;5026582;28;20128;-76
2022/12/10 08:31:26;;;;;;;117.53;22.67;;;;;;;;;;5029704;28;20505;-76
2022/12/10 08:33:52;;;;;;;107.45;22.27;;;;;;;;;;5034507;28;20088;-77
2022/12/10 08:36:19;;;;;;;138.27;23.83;;;;;;;;;;5033524;28;20107;-77
2022/12/10 08:38:45;;;;;;;136.68;25.02;;;;;;;;;;5034538;28;20044;-77
2022/12/10 08:41:13;;;;;;;176.60;27.55;;;;;;;;;;5035088;28;20077;-77
2022/12/10 08:43:39;;;;;;;191.73;27.42;;;;;;;;;;5032079;28;20128;-76
2022/12/10 08:46:05;;;;;;;135.48;24.58;;;;;;;;;;5027763;28;20448;-77
2022/12/10 08:48:33;;;;;;;142.40;25.45;;;;;;;;;;5030707;28;20564;-77
2022/12/10 08:50:59;;;;;;;144.65;27.65;;;;;;;;;;5038930;28;20045;-77
2022/12/10 08:53:26;;;;;;;185.07;30.30;;;;;;;;;;5037948;28;20120;-76
2022/12/10 08:55:52;;;;;;;113.63;25.73;;;;;;;;;;5033881;28;20433;-76
2022/12/10 08:58:18;;;;;;;193.48;31.77;;;;;;;;;;5030224;28;20478;-76
2022/12/10 09:00:44;;;;;;;148.40;27.92;;;;;;;;;;5032937;28;20087;-76
2022/12/10 09:03:10;;;;;;;155.48;27.05;;;;;;;;;;5033084;28;20041;-76
2022/12/10 09:05:37;;;;;;;141.20;25.17;;;;;;;;;;5033625;28;20047;-76
2022/12/10 09:08:03;;;;;;;150.48;26.42;;;;;;;;;;5030809;28;20058;-76
2022/12/10 09:10:29;;;;;;;192.27;29.60;;;;;;;;;;5030186;28;20058;-76
2022/12/10 09:12:55;;;;;;;271.75;33.63;;;;;;;;;;5020742;28;20492;-77
2022/12/10 09:15:21;;;;;;;119.93;24.83;;;;;;;;;;5023634;28;20049;-77
2022/12/10 09:17:47;;;;;;;86.22;22.85;;;;;;;;;;5022805;28;20440;-76
2022/12/10 09:20:14;;;;;;;115.63;23.98;;;;;;;;;;5033685;28;20481;-76
2022/12/10 09:22:40;;;;;;;191.77;27.67;;;;;;;;;;5026120;28;20045;-76
2022/12/10 09:25:09;;;;;;;185.73;29.23;;;;;;;;;;5013755;28;20120;-76
2022/12/10 09:27:36;;;;;;;203.68;31.17;;;;;;;;;;5020149;28;20045;-76
2022/12/10 09:30:02;;;;;;;171.70;31.02;;;;;;;;;;5031941;28;20046;-76
2022/12/10 09:32:28;;;;;;;111.20;24.13;;;;;;;;;;5024692;28;20042;-76
2022/12/10 09:34:54;;;;;;;151.30;26.20;;;;;;;;;;5030044;28;20559;-76
2022/12/10 09:37:20;;;;;;;172.55;26.30;;;;;;;;;;5033503;28;20389;-76
2022/12/10 09:39:46;;;;;;;233.02;32.42;;;;;;;;;;5046914;28;20044;-76
2022/12/10 09:42:32;;;;;;;129.38;23.38;;;;;;;;;;5033238;28;20262;-76
2022/12/10 09:45:04;;;;;;;112.15;22.52;;;;;;;;;;5030220;28;20054;-76
2022/12/10 09:47:33;;;;;;;118.95;24.73;;;;;;;;;;5033767;28;20100;-76
2022/12/10 09:50:36;;;;;;;127.97;23.50;;;;;;;;;;5035717;28;20061;-76
2022/12/10 09:53:03;;;;;;;120.07;23.10;;;;;;;;;;5015274;28;20050;-76
2022/12/10 09:55:35;;;;;;;162.00;24.45;;;;;;;;;;5015129;28;20660;-76
2022/12/10 09:58:02;;;;;;;187.77;26.73;;;;;;;;;;5011870;28;20104;-82
2022/12/10 10:00:42;;;;;;;122.57;22.27;;;;;;;;;;5009926;28;20060;-76
2022/12/10 10:03:13;;;;;;;168.48;25.02;;;;;;;;;;5015925;28;20053;-77
2022/12/10 10:05:42;;;;;;;131.80;23.42;;;;;;;;;;5015348;28;20038;-76
2022/12/10 10:08:23;;;;;;;91.32;22.70;;;;;;;;;;5021613;28;20135;-76
2022/12/10 10:10:50;;;;;;;115.60;25.45;;;;;;;;;;5021801;28;20117;-79
2022/12/10 10:13:42;;;;;;;112.82;24.15;;;;;;;;;;5018720;28;20053;-76
2022/12/10 10:16:17;;;;;;;101.15;21.92;;;;;;;;;;5013187;28;20049;-76
2022/12/10 10:18:49;;;;;;;91.05;20.15;;;;;;;;;;5015628;28;20050;-76
2022/12/10 10:21:23;;;;;;;86.80;19.17;;;;;;;;;;5015321;28;20114;-76
2022/12/10 10:23:49;;;;;;;96.32;19.42;;;;;;;;;;5008339;28;20046;-76
2022/12/10 10:26:18;;;;;;;116.20;20.58;;;;;;;;;;5011345;28;20060;-76
2022/12/10 10:28:47;;;;;;;69.18;18.88;;;;;;;;;;5035831;28;20041;-76
2022/12/10 10:31:24;;;;;;;82.15;19.50;;;;;;;;;;5033457;28;20052;-76
2022/12/10 10:33:56;;;;;;;99.18;20.10;;;;;;;;;;5045510;28;20469;-77
2022/12/10 10:36:24;;;;;;;84.30;20.60;;;;;;;;;;5041151;28;20120;-77
2022/12/10 10:38:50;;;;;;;74.35;18.83;;;;;;;;;;5037508;28;20045;-80
2022/12/10 10:41:16;;;;;;;111.35;28.25;;;;;;;;;;5039477;28;20044;-85
2022/12/10 10:43:50;;;;;;;90.35;20.95;;;;;;;;;;5036768;28;20044;-76
2022/12/10 10:46:16;;;;;;;154.45;25.23;;;;;;;;;;5034183;28;21444;-78
2022/12/10 10:48:43;;;;;;;77.30;19.55;;;;;;;;;;5017795;28;20065;-76
2022/12/10 10:51:12;;;;;;;101.63;20.35;;;;;;;;;;4999623;28;20049;-77
2022/12/10 10:53:51;;;;;;;106.85;19.35;;;;;;;;;;5032854;28;20049;-76
2022/12/10 10:56:18;;;;;;;114.25;21.05;;;;;;;;;;5035790;28;20053;-77
2022/12/10 10:59:04;;;;;;;84.28;18.17;;;;;;;;;;5035227;28;20053;-77
2022/12/10 11:01:45;;;;;;;78.93;18.88;;;;;;;;;;5033922;28;20045;-76
2022/12/10 11:04:11;;;;;;;105.13;19.52;;;;;;;;;;5027942;28;20048;-77
2022/12/10 11:06:37;;;;;;;88.78;18.77;;;;;;;;;;5034013;28;20486;-76
2022/12/10 11:09:05;;;;;;;104.45;19.40;;;;;;;;;;5034116;28;20061;-76
2022/12/10 11:11:36;;;;;;;105.35;19.80;;;;;;;;;;5018112;28;20060;-77
2022/12/10 11:14:28;;;;;;;108.28;20.92;;;;;;;;;;5034089;28;20048;-77
2022/12/10 11:17:01;;;;;;;111.18;20.25;;;;;;;;;;5013507;28;20076;-76
2022/12/10 11:19:27;;;;;;;71.43;18.75;;;;;;;;;;5036689;28;20049;-76
2022/12/10 11:21:56;;;;;;;91.05;18.63;;;;;;;;;;5048335;28;20041;-76
2022/12/10 11:24:22;;;;;;;152.05;24.58;;;;;;;;;;5035039;28;20386;-76
2022/12/10 11:26:57;;;;;;;85.38;20.20;;;;;;;;;;5026344;28;20120;-76
2022/12/10 11:29:23;;;;;;;133.48;22.83;;;;;;;;;;5035392;28;20095;-77
2022/12/10 11:31:52;;;;;;;150.70;24.25;;;;;;;;;;5028034;28;20079;-76
2022/12/10 11:34:18;;;;;;;112.68;23.88;;;;;;;;;;5015574;28;20049;-77
2022/12/10 11:37:04;;;;;;;147.02;27.63;;;;;;;;;;5034884;28;20041;-77
2022/12/10 11:39:30;;;;;;;98.07;23.02;;;;;;;;;;5047495;28;20083;-77
2022/12/10 11:42:03;;;;;;;84.32;22.20;;;;;;;;;;5022306;28;20056;-77
2022/12/10 11:44:35;;;;;;;137.15;25.77;;;;;;;;;;5041875;28;21481;-76
2022/12/10 11:47:10;;;;;;;101.68;22.52;;;;;;;;;;5035015;28;20081;-77
2022/12/10 11:49:39;;;;;;;81.50;20.38;;;;;;;;;;5034559;28;20068;-77
2022/12/10 11:52:18;;;;;;;85.50;20.48;;;;;;;;;;5029071;28;20121;-78
2022/12/10 11:54:47;;;;;;;93.82;21.33;;;;;;;;;;5034790;28;20047;-76
2022/12/10 11:57:21;;;;;;;111.82;21.20;;;;;;;;;;5035041;28;20057;-76
2022/12/10 11:59:53;;;;;;;101.75;21.77;;;;;;;;;;5035078;28;20046;-76
2022/12/10 12:02:22;;;;;;;86.32;20.65;;;;;;;;;;5026915;28;20075;-76
2022/12/10 12:05:14;;;;;;;62.45;18.63;;;;;;;;;;5040829;28;20148;-75
2022/12/10 12:07:44;;;;;;;98.80;21.80;;;;;;;;;;5029107;28;20049;-76
2022/12/10 12:10:28;;;;;;;112.53;22.63;;;;;;;;;;5035452;28;20037;-76
2022/12/10 12:12:58;;;;;;;108.57;24.10;;;;;;;;;;5049078;28;20069;-77
2022/12/10 12:15:37;;;;;;;103.50;21.95;;;;;;;;;;5034591;28;20067;-76
2022/12/10 12:18:06;;;;;;;88.25;22.42;;;;;;;;;;5035163;28;20099;-76
2022/12/10 12:20:39;;;;;;;110.50;23.90;;;;;;;;;;5045624;28;20037;-76
2022/12/10 12:23:11;;;;;;;115.88;22.80;;;;;;;;;;5036159;28;20045;-76
2022/12/10 12:25:46;;;;;;;94.05;23.83;;;;;;;;;;5025341;28;20107;-77
2022/12/10 12:28:18;;;;;;;104.50;24.48;;;;;;;;;;5034623;28;20034;-76
2022/12/10 12:30:45;;;;;;;98.72;24.30;;;;;;;;;;5034188;28;20041;-76
2022/12/10 12:33:31;;;;;;;106.85;25.42;;;;;;;;;;5033627;28;20432;-76
2022/12/10 12:36:06;;;;;;;67.70;24.55;;;;;;;;;;5032287;28;20045;-76
2022/12/10 12:38:36;;;;;;;74.05;23.85;;;;;;;;;;5034601;28;20477;-76
2022/12/10 12:41:10;;;;;;;56.95;21.85;;;;;;;;;;5034078;28;20430;-77
2022/12/10 12:43:37;;;;;;;65.82;20.08;;;;;;;;;;5047138;28;20037;-78
2022/12/10 12:46:11;;;;;;;57.80;21.25;;;;;;;;;;5033961;28;20072;-76
2022/12/10 12:48:42;;;;;;;55.35;20.35;;;;;;;;;;5048195;28;20128;-76
2022/12/10 12:51:08;;;;;;;61.45;21.05;;;;;;;;;;5028277;28;20053;-77
2022/12/10 12:53:35;;;;;;;67.55;21.45;;;;;;;;;;5031983;28;20064;-77
2022/12/10 12:56:08;;;;;;;73.85;24.38;;;;;;;;;;5033951;28;20382;-78
2022/12/10 12:58:34;;;;;;;64.25;21.88;;;;;;;;;;5042769;28;20060;-77
2022/12/10 13:01:07;;;;;;;60.85;23.65;;;;;;;;;;5015878;28;20394;-77
2022/12/10 13:03:43;;;;;;;54.80;20.38;;;;;;;;;;5032446;28;20048;-77
2022/12/10 13:06:16;;;;;;;51.05;20.60;;;;;;;;;;5030270;28;20049;-77
2022/12/10 13:08:44;;;;;;;60.83;23.88;;;;;;;;;;5029596;28;20165;-77
2022/12/10 13:11:13;;;;;;;51.42;21.33;;;;;;;;;;5032219;28;20052;-77
2022/12/10 13:13:40;;;;;;;48.92;20.52;;;;;;;;;;5028411;28;20045;-77
2022/12/10 13:16:24;;;;;;;57.13;21.15;;;;;;;;;;5032929;28;20121;-77
2022/12/10 13:19:10;;;;;;;53.88;21.30;;;;;;;;;;5031479;28;20049;-77
2022/12/10 13:21:56;;;;;;;49.25;20.20;;;;;;;;;;5033684;28;20044;-77
2022/12/10 13:24:45;;;;;;;48.20;19.63;;;;;;;;;;5032434;28;20045;-77
2022/12/10 13:27:33;;;;;;;52.03;19.83;;;;;;;;;;5032207;28;20561;-77
2022/12/10 13:30:01;;;;;;;52.63;20.30;;;;;;;;;;5032227;28;20497;-77
2022/12/10 13:32:30;;;;;;;56.42;22.00;;;;;;;;;;5024128;28;20045;-77
2022/12/10 13:35:08;;;;;;;52.42;21.67;;;;;;;;;;5033340;28;20042;-77
2022/12/10 13:37:36;;;;;;;64.13;24.15;;;;;;;;;;5035063;28;20121;-77
2022/12/10 13:40:02;;;;;;;53.08;22.20;;;;;;;;;;5029566;28;20050;-77
2022/12/10 13:45:18;;;;;;;58.42;23.17;;;;;;;;;;5033674;28;20046;-76
2022/12/10 13:47:47;;;;;;;66.13;23.65;;;;;;;;;;5010030;28;20413;-77
2022/12/10 13:50:19;;;;;;;61.03;25.90;;;;;;;;;;5029801;28;20050;-77
2022/12/10 13:52:48;;;;;;;62.13;23.88;;;;;;;;;;5033510;28;20041;-77
2022/12/10 13:55:20;;;;;;;55.72;22.10;;;;;;;;;;5033804;28;20114;-77
2022/12/10 13:57:52;;;;;;;54.97;22.75;;;;;;;;;;5042302;28;20099;-77
2022/12/10 14:00:24;;;;;;;57.47;21.65;;;;;;;;;;5034395;28;20052;-77
2022/12/10 14:03:06;;;;;;;54.88;20.90;;;;;;;;;;5042049;28;20042;-77
2022/12/10 14:05:51;;;;;;;45.40;19.20;;;;;;;;;;5026994;28;20066;-77
2022/12/10 14:08:18;;;;;;;40.38;17.23;;;;;;;;;;5017671;28;20339;-77
2022/12/10 14:10:45;;;;;;;33.90;15.05;;;;;;;;;;5026508;28;20057;-78
2022/12/10 14:13:13;;;;;;;37.42;15.60;;;;;;;;;;5032530;28;20546;-77
2022/12/10 14:15:40;;;;;;;35.70;16.58;;;;;;;;;;5033022;28;20041;-77
2022/12/10 14:18:16;;;;;;;43.88;17.48;;;;;;;;;;5032888;28;20041;-77
2022/12/10 14:20:45;;;;;;;34.78;17.15;;;;;;;;;;5021013;28;20056;-78
2022/12/10 14:23:40;;;;;;;42.00;18.10;;;;;;;;;;5016587;28;20493;-77
2022/12/10 14:26:20;;;;;;;43.08;18.98;;;;;;;;;;5032825;28;20054;-77
2022/12/10 14:28:56;;;;;;;45.17;19.38;;;;;;;;;;5030310;28;20050;-77